createdAt,value
2018-12-01T00:02:14.922Z,34.77
2018-12-01T00:04:42.527Z,35.83
2018-12-01T00:07:10.778Z,36.50
2018-12-01T00:09:38.234Z,35.10
2018-12-01T00:12:05.840Z,35.43
2018-12-01T00:14:33.450Z,33.83
2018-12-01T00:17:00.998Z,35.87
2018-12-01T00:19:28.459Z,36.03
2018-12-01T00:21:55.880Z,35.00
2018-12-01T00:24:23.418Z,36.20
2018-12-01T00:26:50.844Z,35.83
2018-12-01T00:29:18.252Z,35.67
2018-12-01T00:31:45.790Z,35.47
2018-12-01T00:34:13.199Z,36.80
2018-12-01T00:36:40.625Z,38.47
2018-12-01T00:39:08.086Z,37.80
2018-12-01T00:41:35.531Z,36.20
2018-12-01T00:44:02.949Z,35.90
2018-12-01T00:46:30.836Z,37.50
2018-12-01T00:48:58.245Z,37.13
2018-12-01T00:51:25.793Z,37.20
2018-12-01T00:53:53.226Z,37.93
2018-12-01T00:56:20.689Z,36.80
2018-12-01T00:58:48.105Z,38.53
2018-12-01T01:01:15.943Z,38.87
2018-12-01T01:03:43.504Z,37.73
2018-12-01T01:06:11.162Z,37.00
2018-12-01T01:08:38.644Z,37.73
2018-12-01T01:11:06.282Z,36.30
2018-12-01T01:13:33.765Z,37.50
2018-12-01T01:16:01.301Z,37.67
2018-12-01T01:18:28.725Z,36.97
2018-12-01T01:20:56.301Z,37.30
2018-12-01T01:23:23.976Z,37.20
2018-12-01T01:25:51.728Z,37.80
2018-12-01T01:28:19.357Z,36.80
2018-12-01T01:30:47.165Z,37.93
2018-12-01T01:33:28.506Z,36.90
2018-12-01T01:35:56.024Z,35.77
2018-12-01T01:38:23.521Z,38.60
2018-12-01T01:40:56.991Z,38.50
2018-12-01T01:43:24.424Z,37.67
2018-12-01T01:45:51.996Z,36.00
2018-12-01T01:48:19.439Z,35.57
2018-12-01T01:50:46.880Z,38.00
2018-12-01T01:53:14.380Z,40.20
2018-12-01T01:55:41.886Z,36.67
2018-12-01T01:58:09.324Z,38.57
2018-12-01T02:00:36.766Z,38.00
2018-12-01T02:03:04.313Z,38.10
2018-12-01T02:05:43.382Z,36.83
2018-12-01T02:08:10.804Z,38.13
2018-12-01T02:10:38.225Z,36.50
2018-12-01T02:13:05.651Z,36.60
2018-12-01T02:15:33.053Z,36.77
2018-12-01T02:18:00.494Z,37.77
2018-12-01T02:20:27.894Z,38.43
2018-12-01T02:22:55.348Z,36.10
2018-12-01T02:25:22.882Z,36.37
2018-12-01T02:27:50.424Z,35.17
2018-12-01T02:30:18.961Z,38.10
2018-12-01T02:32:46.776Z,34.13
2018-12-01T02:35:21.573Z,35.47
2018-12-01T02:37:49.035Z,38.13
2018-12-01T02:40:16.457Z,36.80
2018-12-01T02:42:44.020Z,36.27
2018-12-01T02:45:22.842Z,36.47
2018-12-01T02:47:50.276Z,38.40
2018-12-01T02:50:22.739Z,38.40
2018-12-01T02:52:50.317Z,36.87
2018-12-01T02:55:17.740Z,36.90
2018-12-01T02:57:45.322Z,36.30
2018-12-01T03:00:13.064Z,39.40
2018-12-01T03:02:40.496Z,39.80
2018-12-01T03:05:08.993Z,38.90
2018-12-01T03:07:36.445Z,37.87
2018-12-01T03:10:06.072Z,39.37
2018-12-01T03:12:33.493Z,40.53
2018-12-01T03:15:00.881Z,39.50
2018-12-01T03:17:28.314Z,40.30
2018-12-01T03:19:55.783Z,41.47
2018-12-01T03:22:23.197Z,40.57
2018-12-01T03:24:50.605Z,38.37
2018-12-01T03:27:18.070Z,38.20
2018-12-01T03:29:45.498Z,39.97
2018-12-01T03:32:13.003Z,38.47
2018-12-01T03:34:40.426Z,40.10
2018-12-01T03:37:08.760Z,37.80
2018-12-01T03:39:36.177Z,40.63
2018-12-01T03:42:03.649Z,39.17
2018-12-01T03:44:31.129Z,40.20
2018-12-01T03:46:58.593Z,39.73
2018-12-01T03:49:25.992Z,40.80
2018-12-01T03:51:53.429Z,41.70
2018-12-01T03:54:20.868Z,41.27
2018-12-01T03:56:48.289Z,40.37
2018-12-01T03:59:15.742Z,41.30
2018-12-01T04:01:43.220Z,41.53
2018-12-01T04:04:10.645Z,42.20
2018-12-01T04:06:38.157Z,40.53
2018-12-01T04:09:13.136Z,42.20
2018-12-01T04:11:41.692Z,39.93
2018-12-01T04:14:09.394Z,41.17
2018-12-01T04:16:36.829Z,41.37
2018-12-01T04:19:04.718Z,41.00
2018-12-01T04:21:32.131Z,40.80
2018-12-01T04:23:59.581Z,39.70
2018-12-01T04:26:26.985Z,40.73
2018-12-01T04:28:54.429Z,40.40
2018-12-01T04:31:21.882Z,40.00
2018-12-01T04:33:49.338Z,40.57
2018-12-01T04:36:16.740Z,39.73
2018-12-01T04:38:44.186Z,39.77
2018-12-01T04:41:11.601Z,37.93
2018-12-01T04:43:39.029Z,40.13
2018-12-01T04:46:06.454Z,39.00
2018-12-01T04:48:33.960Z,41.20
2018-12-01T04:51:01.364Z,43.40
2018-12-01T04:53:28.809Z,40.70
2018-12-01T04:55:56.211Z,40.37
2018-12-01T04:58:23.644Z,41.20
2018-12-01T05:00:51.047Z,40.90
2018-12-01T05:03:19.327Z,42.40
2018-12-01T05:05:46.717Z,42.70
2018-12-01T05:08:14.134Z,39.90
2018-12-01T05:10:41.525Z,41.97
2018-12-01T05:13:09.017Z,41.67
2018-12-01T05:15:36.417Z,38.97
2018-12-01T05:18:03.857Z,41.10
2018-12-01T05:20:31.259Z,42.73
2018-12-01T05:22:58.701Z,42.00
2018-12-01T05:25:26.254Z,42.37
2018-12-01T05:27:53.698Z,41.53
2018-12-01T05:30:21.129Z,40.10
2018-12-01T05:32:48.594Z,38.37
2018-12-01T05:35:18.354Z,43.40
2018-12-01T05:37:45.781Z,41.90
2018-12-01T05:40:13.430Z,40.20
2018-12-01T05:42:40.832Z,41.70
2018-12-01T05:45:11.417Z,42.43
2018-12-01T05:47:38.833Z,41.80
2018-12-01T05:50:07.300Z,39.87
2018-12-01T05:52:34.742Z,42.07
2018-12-01T05:55:02.408Z,42.00
2018-12-01T05:57:29.890Z,41.37
2018-12-01T05:59:57.321Z,41.57
2018-12-01T06:02:24.735Z,41.17
2018-12-01T06:04:52.154Z,41.33
2018-12-01T06:07:19.564Z,42.30
2018-12-01T06:09:46.996Z,40.53
2018-12-01T06:12:14.545Z,41.00
2018-12-01T06:14:42.026Z,38.77
2018-12-01T06:17:09.403Z,38.30
2018-12-01T06:19:36.837Z,41.23
2018-12-01T06:22:04.605Z,37.60
2018-12-01T06:24:32.028Z,38.40
2018-12-01T06:26:59.465Z,38.63
2018-12-01T06:29:26.916Z,44.43
2018-12-01T06:31:54.316Z,41.90
2018-12-01T06:34:21.743Z,43.03
2018-12-01T06:36:49.174Z,40.77
2018-12-01T06:39:16.604Z,39.53
2018-12-01T06:41:44.025Z,39.43
2018-12-01T06:44:11.467Z,40.07
2018-12-01T06:46:38.859Z,41.60
2018-12-01T06:49:06.318Z,39.90
2018-12-01T06:51:33.720Z,40.67
2018-12-01T06:54:01.235Z,42.00
2018-12-01T06:56:28.637Z,40.40
2018-12-01T06:58:56.053Z,41.50
2018-12-01T07:01:23.550Z,39.17
2018-12-01T07:03:50.982Z,42.43
2018-12-01T07:06:18.409Z,40.47
2018-12-01T07:08:45.828Z,39.97
2018-12-01T07:11:13.256Z,40.73
2018-12-01T07:13:40.703Z,38.93
2018-12-01T07:16:08.133Z,39.30
2018-12-01T07:18:46.980Z,40.47
2018-12-01T07:21:14.366Z,39.47
2018-12-01T07:23:41.802Z,38.83
2018-12-01T07:26:09.316Z,39.70
2018-12-01T07:28:36.728Z,40.40
2018-12-01T07:31:04.566Z,39.60
2018-12-01T07:33:32.057Z,38.73
2018-12-01T07:35:59.491Z,39.33
2018-12-01T07:38:26.966Z,40.27
2018-12-01T07:40:54.424Z,38.00
2018-12-01T07:43:21.848Z,39.80
2018-12-01T07:45:49.289Z,37.50
2018-12-01T07:48:16.665Z,36.73
2018-12-01T07:50:44.189Z,39.20
2018-12-01T07:53:11.632Z,38.80
2018-12-01T07:55:39.118Z,38.93
2018-12-01T07:58:06.510Z,39.43
2018-12-01T08:00:34.027Z,41.43
2018-12-01T08:03:01.479Z,37.60
2018-12-01T08:05:28.974Z,37.50
2018-12-01T08:07:56.359Z,38.50
2018-12-01T08:10:23.865Z,37.57
2018-12-01T08:12:51.290Z,38.60
2018-12-01T08:15:18.769Z,40.00
2018-12-01T08:17:46.517Z,40.00
2018-12-01T08:20:14.874Z,40.03
2018-12-01T08:22:42.324Z,36.57
2018-12-01T08:25:17.970Z,39.83
2018-12-01T08:27:46.790Z,37.77
2018-12-01T08:30:17.467Z,37.10
2018-12-01T08:32:44.905Z,37.53
2018-12-01T08:35:12.452Z,38.17
2018-12-01T08:37:39.860Z,38.00
2018-12-01T08:40:09.862Z,38.67
2018-12-01T08:42:37.285Z,37.17
2018-12-01T08:45:07.456Z,36.70
2018-12-01T08:47:34.854Z,38.97
2018-12-01T08:50:02.686Z,36.90
2018-12-01T08:52:30.086Z,37.33
2018-12-01T08:54:57.511Z,37.87
2018-12-01T08:57:24.901Z,38.70
2018-12-01T08:59:52.469Z,38.57
2018-12-01T09:02:19.904Z,34.23
2018-12-01T09:04:47.359Z,36.53
2018-12-01T09:07:14.778Z,36.43
2018-12-01T09:09:43.589Z,35.17
2018-12-01T09:12:11.032Z,34.80
2018-12-01T09:14:38.528Z,35.43
2018-12-01T09:17:07.253Z,34.60
2018-12-01T09:19:35.912Z,36.10
2018-12-01T09:22:03.515Z,35.70
2018-12-01T09:24:30.935Z,34.73
2018-12-01T09:26:58.425Z,35.17
2018-12-01T09:29:25.964Z,34.30
2018-12-01T09:31:53.514Z,35.03
2018-12-01T09:34:21.109Z,35.43
2018-12-01T09:36:48.623Z,34.63
2018-12-01T09:39:16.032Z,36.20
2018-12-01T09:41:43.561Z,34.67
2018-12-01T09:44:11.065Z,34.87
2018-12-01T09:46:38.500Z,35.60
2018-12-01T09:49:05.979Z,36.20
2018-12-01T09:51:33.431Z,33.33
2018-12-01T09:54:00.836Z,34.70
2018-12-01T09:56:28.265Z,32.50
2018-12-01T09:58:55.701Z,33.20
2018-12-01T10:01:23.157Z,34.17
2018-12-01T10:03:50.641Z,33.27
2018-12-01T10:06:18.167Z,33.57
2018-12-01T10:08:45.711Z,35.40
2018-12-01T10:11:13.272Z,35.37
2018-12-01T10:13:40.837Z,33.90
2018-12-01T10:16:08.308Z,35.30
2018-12-01T10:18:35.774Z,33.03
2018-12-01T10:21:03.410Z,31.30
2018-12-01T10:23:30.837Z,34.23
2018-12-01T10:25:58.268Z,34.23
2018-12-01T10:28:25.690Z,32.87
2018-12-01T10:30:53.109Z,31.30
2018-12-01T10:33:20.534Z,29.63
2018-12-01T10:35:47.988Z,31.23
2018-12-01T10:38:16.112Z,29.30
2018-12-01T10:40:43.577Z,30.57
2018-12-01T10:43:10.973Z,28.43
2018-12-01T10:45:38.412Z,28.00
2018-12-01T10:48:07.305Z,29.57
2018-12-01T10:50:34.763Z,27.07
2018-12-01T10:53:02.185Z,27.00
2018-12-01T10:55:31.525Z,27.63
2018-12-01T10:58:09.165Z,27.10
2018-12-01T11:00:42.456Z,26.57
2018-12-01T11:03:15.622Z,27.87
2018-12-01T11:05:43.545Z,28.60
2018-12-01T11:08:12.532Z,28.73
2018-12-01T11:10:40.023Z,27.50
2018-12-01T11:13:07.446Z,26.47
2018-12-01T11:15:34.981Z,26.07
2018-12-01T11:18:02.480Z,27.90
2018-12-01T11:20:29.911Z,24.37
2018-12-01T11:22:58.164Z,22.60
2018-12-01T11:25:24.930Z,23.40
2018-12-01T11:27:52.389Z,21.70
2018-12-01T11:30:19.853Z,21.23
2018-12-01T11:32:47.538Z,21.30
2018-12-01T11:35:15.001Z,22.80
2018-12-01T11:37:42.478Z,21.40
2018-12-01T11:40:15.278Z,21.00
2018-12-01T11:42:41.804Z,19.27
2018-12-01T11:45:12.252Z,18.70
2018-12-01T11:47:39.754Z,19.27
2018-12-01T11:50:15.770Z,18.63
2018-12-01T11:52:43.790Z,18.80
2018-12-01T11:55:19.335Z,18.87
2018-12-01T11:57:46.817Z,17.87
2018-12-01T12:00:17.017Z,18.17
2018-12-01T12:02:44.785Z,18.80
2018-12-01T12:05:13.293Z,18.00
2018-12-01T12:07:52.285Z,17.90
2018-12-01T12:10:19.713Z,16.70
2018-12-01T12:12:47.257Z,16.77
2018-12-01T12:15:14.824Z,16.80
2018-12-01T12:17:43.691Z,17.43
2018-12-01T12:20:11.156Z,17.47
2018-12-01T12:22:38.655Z,15.67
2018-12-01T12:25:07.708Z,17.53
2018-12-01T12:27:35.153Z,17.20
2018-12-01T12:30:03.513Z,17.63
2018-12-01T12:32:31.048Z,17.10
2018-12-01T12:34:58.465Z,17.93
2018-12-01T12:37:25.900Z,18.10
2018-12-01T12:39:53.317Z,16.87
2018-12-01T12:42:20.770Z,17.13
2018-12-01T12:44:48.201Z,16.50
2018-12-01T12:47:15.642Z,16.07
2018-12-01T12:49:43.044Z,16.17
2018-12-01T12:52:10.485Z,16.20
2018-12-01T12:54:37.916Z,15.87
2018-12-01T12:57:05.391Z,16.03
2018-12-01T12:59:32.792Z,17.33
2018-12-01T13:02:00.305Z,17.57
2018-12-01T13:04:27.788Z,17.60
2018-12-01T13:06:55.199Z,16.47
2018-12-01T13:09:22.777Z,16.07
2018-12-01T13:11:50.191Z,16.23
2018-12-01T13:14:17.690Z,16.80
2018-12-01T13:16:45.152Z,16.43
2018-12-01T13:19:12.583Z,15.63
2018-12-01T13:21:40.086Z,14.97
2018-12-01T13:24:07.523Z,14.70
2018-12-01T13:26:34.997Z,14.03
2018-12-01T13:29:03.104Z,12.60
2018-12-01T13:31:30.602Z,13.80
2018-12-01T13:33:58.060Z,12.43
2018-12-01T13:36:25.541Z,12.30
2018-12-01T13:38:53.025Z,11.53
2018-12-01T13:41:20.436Z,11.83
2018-12-01T13:43:47.980Z,11.07
2018-12-01T13:46:15.480Z,10.57
2018-12-01T13:48:42.933Z,10.23
2018-12-01T13:51:10.424Z,11.00
2018-12-01T13:53:37.860Z,10.90
2018-12-01T13:56:05.352Z,9.87
2018-12-01T13:58:32.749Z,10.03
2018-12-01T14:01:00.198Z,9.67
2018-12-01T14:03:27.605Z,9.40
2018-12-01T14:05:55.080Z,9.43
2018-12-01T14:08:22.483Z,9.03
2018-12-01T14:10:50.841Z,9.80
2018-12-01T14:13:18.307Z,9.30
2018-12-01T14:15:45.797Z,9.67
2018-12-01T14:18:13.680Z,9.07
2018-12-01T14:20:41.154Z,8.50
2018-12-01T14:23:08.638Z,9.40
2018-12-01T14:25:36.117Z,9.20
2018-12-01T14:28:07.902Z,9.30
2018-12-01T14:30:35.457Z,8.87
2018-12-01T14:33:02.938Z,9.57
2018-12-01T14:35:33.633Z,9.30
2018-12-01T14:38:07.541Z,8.77
2018-12-01T14:40:35.474Z,9.07
2018-12-01T14:43:02.942Z,9.47
2018-12-01T14:45:30.602Z,10.37
2018-12-01T14:47:58.425Z,10.10
2018-12-01T14:50:26.275Z,8.97
2018-12-01T14:52:53.794Z,8.73
2018-12-01T14:55:21.229Z,9.20
2018-12-01T14:57:48.645Z,8.60
2018-12-01T15:00:21.011Z,9.30
2018-12-01T15:02:49.322Z,9.73
2018-12-01T15:05:16.740Z,9.40
2018-12-01T15:07:44.709Z,9.47
2018-12-01T15:10:15.380Z,9.47
2018-12-01T15:12:42.975Z,8.60
2018-12-01T15:15:11.601Z,8.90
2018-12-01T15:17:39.036Z,8.63
2018-12-01T15:20:09.122Z,9.13
2018-12-01T15:22:36.611Z,9.10
2018-12-01T15:25:05.527Z,8.87
2018-12-01T15:27:33.083Z,8.67
2018-12-01T15:30:00.494Z,8.20
2018-12-01T15:32:27.952Z,9.50
2018-12-01T15:34:55.481Z,7.90
2018-12-01T15:37:22.920Z,9.40
2018-12-01T15:39:50.361Z,9.07
2018-12-01T15:42:17.877Z,8.87
2018-12-01T15:44:45.336Z,9.53
2018-12-01T15:47:12.780Z,10.13
2018-12-01T15:49:40.233Z,8.27
2018-12-01T15:52:07.632Z,9.73
2018-12-01T15:54:35.096Z,9.10
2018-12-01T15:57:02.546Z,7.90
2018-12-01T15:59:30.009Z,9.57
2018-12-01T16:01:57.477Z,8.70
2018-12-01T16:04:25.026Z,9.47
2018-12-01T16:06:52.498Z,9.30
2018-12-01T16:09:20.023Z,8.97
2018-12-01T16:11:47.492Z,8.73
2018-12-01T16:14:14.985Z,8.97
2018-12-01T16:16:42.529Z,10.40
2018-12-01T16:19:09.973Z,8.73
2018-12-01T16:21:37.483Z,8.27
2018-12-01T16:24:05.149Z,8.73
2018-12-01T16:26:32.625Z,9.13
2018-12-01T16:29:00.077Z,8.80
2018-12-01T16:31:27.513Z,8.97
2018-12-01T16:33:54.992Z,9.67
2018-12-01T16:36:22.435Z,9.67
2018-12-01T16:38:50.193Z,8.30
2018-12-01T16:41:20.921Z,9.50
2018-12-01T16:43:48.437Z,8.90
2018-12-01T16:46:16.036Z,9.90
2018-12-01T16:48:43.532Z,9.10
2018-12-01T16:51:10.936Z,9.53
2018-12-01T16:53:38.481Z,10.43
2018-12-01T16:56:05.946Z,9.80
2018-12-01T16:58:33.421Z,9.70
2018-12-01T17:01:00.948Z,10.10
2018-12-01T17:03:28.478Z,10.63
2018-12-01T17:05:57.388Z,9.90
2018-12-01T17:08:24.838Z,10.50
2018-12-01T17:10:52.305Z,10.40
2018-12-01T17:13:19.893Z,11.73
2018-12-01T17:15:47.377Z,10.57
2018-12-01T17:18:14.784Z,9.60
2018-12-01T17:20:42.415Z,10.97
2018-12-01T17:23:12.605Z,11.60
2018-12-01T17:25:40.075Z,10.33
2018-12-01T17:28:10.475Z,12.20
2018-12-01T17:30:37.949Z,10.20
2018-12-01T17:33:06.179Z,10.77
2018-12-01T17:35:33.666Z,10.80
2018-12-01T17:38:03.369Z,10.40
2018-12-01T17:40:36.373Z,9.37
2018-12-01T17:43:05.536Z,10.37
2018-12-01T17:45:32.961Z,10.33
2018-12-01T17:48:00.417Z,10.07
2018-12-01T17:50:27.900Z,10.57
2018-12-01T17:52:56.173Z,9.43
2018-12-01T17:55:25.355Z,10.33
2018-12-01T17:57:53.120Z,10.30
2018-12-01T18:00:23.856Z,10.33
2018-12-01T18:02:52.859Z,9.33
2018-12-01T18:05:24.370Z,9.70
2018-12-01T18:07:52.061Z,10.20
2018-12-01T18:10:19.336Z,9.07
2018-12-01T18:12:46.740Z,10.63
2018-12-01T18:15:15.676Z,9.40
2018-12-01T18:17:43.110Z,9.20
2018-12-01T18:20:16.261Z,9.23
2018-12-01T18:22:45.070Z,9.63
2018-12-01T18:25:12.520Z,10.03
2018-12-01T18:27:39.945Z,10.10
2018-12-01T18:30:12.155Z,10.23
2018-12-01T18:32:39.613Z,9.60
2018-12-01T18:35:07.596Z,9.10
2018-12-01T18:37:35.293Z,9.40
2018-12-01T18:40:06.153Z,10.23
2018-12-01T18:42:33.609Z,9.50
2018-12-01T18:45:01.641Z,9.33
2018-12-01T18:47:28.573Z,9.40
2018-12-01T18:49:56.098Z,9.47
2018-12-01T18:52:23.575Z,9.73
2018-12-01T18:54:51.000Z,8.90
2018-12-01T18:57:18.477Z,9.30
2018-12-01T18:59:45.899Z,9.83
2018-12-01T19:02:13.313Z,8.40
2018-12-01T19:04:40.807Z,9.37
2018-12-01T19:07:08.273Z,9.07
2018-12-01T19:09:35.714Z,8.97
2018-12-01T19:12:03.184Z,8.30
2018-12-01T19:14:30.572Z,8.93
2018-12-01T19:16:58.082Z,8.67
2018-12-01T19:19:25.486Z,8.50
2018-12-01T19:21:52.941Z,8.73
2018-12-01T19:24:20.349Z,9.17
2018-12-01T19:26:47.897Z,8.30
2018-12-01T19:29:15.312Z,8.93
2018-12-01T19:31:42.770Z,9.27
2018-12-01T19:34:10.205Z,8.27
2018-12-01T19:36:37.637Z,8.53
2018-12-01T19:39:06.835Z,8.53
2018-12-01T19:41:34.285Z,8.40
2018-12-01T19:44:01.758Z,8.30
2018-12-01T19:46:29.254Z,7.60
2018-12-01T19:48:56.709Z,7.97
2018-12-01T19:51:24.169Z,8.07
2018-12-01T19:53:51.602Z,8.30
2018-12-01T19:56:19.029Z,8.27
2018-12-01T19:58:46.480Z,9.00
2018-12-01T20:01:13.977Z,8.10
2018-12-01T20:03:41.425Z,8.03
2018-12-01T20:06:08.879Z,9.13
2018-12-01T20:08:36.272Z,7.90
2018-12-01T20:11:06.149Z,8.40
2018-12-01T20:13:38.117Z,8.57
2018-12-01T20:16:42.026Z,8.00
2018-12-01T20:19:09.684Z,8.77
2018-12-01T20:21:37.123Z,7.77
2018-12-01T20:24:05.952Z,7.93
2018-12-01T20:26:33.521Z,8.13
2018-12-01T20:29:01.244Z,7.70
2018-12-01T20:31:28.691Z,7.37
2018-12-01T20:33:58.195Z,8.03
2018-12-01T20:36:30.088Z,9.10
2018-12-01T20:39:18.225Z,7.73
2018-12-01T20:41:45.697Z,7.80
2018-12-01T20:44:13.157Z,8.57
2018-12-01T20:46:40.585Z,8.03
2018-12-01T20:49:08.128Z,7.80
2018-12-01T20:51:35.593Z,7.50
2018-12-01T20:54:03.302Z,6.87
2018-12-01T20:56:33.889Z,7.50
2018-12-01T20:59:01.421Z,8.23
2018-12-01T21:01:28.950Z,7.40
2018-12-01T21:03:56.543Z,8.00
2018-12-01T21:06:24.113Z,7.27
2018-12-01T21:08:51.658Z,7.87
2018-12-01T21:11:19.117Z,7.40
2018-12-01T21:13:46.529Z,7.53
2018-12-01T21:16:14.000Z,7.60
2018-12-01T21:18:41.589Z,7.63
2018-12-01T21:21:09.117Z,7.83
2018-12-01T21:23:37.745Z,7.83
2018-12-01T21:26:05.180Z,7.13
2018-12-01T21:28:32.613Z,8.10
2018-12-01T21:31:00.099Z,7.60
2018-12-01T21:33:30.309Z,8.17
2018-12-01T21:35:57.882Z,8.43
2018-12-01T21:38:25.341Z,8.17
2018-12-01T21:40:52.810Z,8.17
2018-12-01T21:43:20.331Z,7.40
2018-12-01T21:45:47.805Z,7.80
2018-12-01T21:48:15.295Z,6.90
2018-12-01T21:50:43.883Z,7.10
2018-12-01T21:53:21.014Z,7.30
2018-12-01T21:55:48.473Z,7.63
2018-12-01T21:58:15.922Z,7.57
2018-12-01T22:00:47.701Z,7.17
2018-12-01T22:03:16.034Z,7.13
2018-12-01T22:05:45.188Z,7.07
2018-12-01T22:08:13.967Z,7.60
2018-12-01T22:10:42.252Z,7.33
2018-12-01T22:13:09.736Z,6.30
2018-12-01T22:15:37.364Z,6.90
2018-12-01T22:18:05.093Z,6.87
2018-12-01T22:20:32.760Z,6.73
2018-12-01T22:23:00.172Z,6.80
2018-12-01T22:25:27.695Z,6.13
2018-12-01T22:27:55.147Z,6.90
2018-12-01T22:30:23.433Z,6.93
2018-12-01T22:32:52.614Z,7.00
2018-12-01T22:35:22.065Z,6.70
2018-12-01T22:37:50.214Z,6.83
2018-12-01T22:40:20.618Z,7.03
2018-12-01T22:42:49.426Z,7.10
2018-12-01T22:45:16.840Z,8.53
2018-12-01T22:47:44.286Z,7.30
2018-12-01T22:50:13.129Z,6.90
2018-12-01T22:52:40.828Z,6.87
2018-12-01T22:55:09.882Z,7.53
2018-12-01T22:57:37.304Z,6.27
2018-12-01T23:00:25.592Z,7.43
2018-12-01T23:02:53.062Z,7.10
2018-12-01T23:05:20.488Z,7.80
2018-12-01T23:07:47.975Z,8.00
2018-12-01T23:10:16.127Z,6.93
2018-12-01T23:12:44.762Z,7.30
2018-12-01T23:15:13.274Z,7.37
2018-12-01T23:17:42.234Z,7.30
2018-12-01T23:20:19.758Z,7.43
2018-12-01T23:22:47.748Z,7.43
2018-12-01T23:25:15.172Z,6.73
2018-12-01T23:27:42.604Z,7.17
2018-12-01T23:30:31.630Z,6.57
2018-12-01T23:33:03.440Z,6.80
2018-12-01T23:35:31.253Z,7.28
2018-12-01T23:37:58.856Z,7.53
2018-12-01T23:40:26.300Z,7.20
2018-12-01T23:42:53.881Z,7.03
2018-12-01T23:45:21.689Z,7.50
2018-12-01T23:47:50.261Z,7.47
2018-12-01T23:50:26.214Z,6.87
2018-12-01T23:53:00.765Z,7.43
2018-12-01T23:55:28.189Z,7.77
2018-12-01T23:57:55.670Z,7.67
